sensor_id;sensor_type;location;lat;lon;timestamp;pressure;altitude;pressure_sealevel;temperature;humidity
72409;BME280;60402;48.082;11.628;2023-02-28T00:01:03;95736.16;;;-3.98;93.17
72409;BME280;60402;48.082;11.628;2023-02-28T00:03:29;95755.00;;;-3.88;93.28
72409;BME280;60402;48.082;11.628;2023-02-28T00:05:54;95755.94;;;-3.83;93.25
72409;BME280;60402;48.082;11.628;2023-02-28T00:08:19;95748.69;;;-3.88;93.29
72409;BME280;60402;48.082;11.628;2023-02-28T00:10:46;95723.72;;;-4.16;93.78
72409;BME280;60402;48.082;11.628;2023-02-28T00:13:11;95762.38;;;-3.92;94.10
72409;BME280;60402;48.082;11.628;2023-02-28T00:15:36;95756.94;;;-4.00;93.92
72409;BME280;60402;48.082;11.628;2023-02-28T00:18:02;95752.81;;;-3.82;93.10
72409;BME280;60402;48.082;11.628;2023-02-28T00:20:28;95744.56;;;-3.94;93.17
72409;BME280;60402;48.082;11.628;2023-02-28T00:22:54;95726.47;;;-4.16;93.70
72409;BME280;60402;48.082;11.628;2023-02-28T00:25:23;95709.78;;;-4.20;93.22
72409;BME280;60402;48.082;11.628;2023-02-28T00:27:49;95747.88;;;-4.01;93.98
72409;BME280;60402;48.082;11.628;2023-02-28T00:30:17;95737.19;;;-4.02;93.55
72409;BME280;60402;48.082;11.628;2023-02-28T00:32:43;95733.50;;;-4.06;94.18
72409;BME280;60402;48.082;11.628;2023-02-28T00:35:09;95715.66;;;-4.33;94.78
72409;BME280;60402;48.082;11.628;2023-02-28T00:37:34;95740.28;;;-4.04;93.91
72409;BME280;60402;48.082;11.628;2023-02-28T00:40:00;95724.28;;;-4.11;94.23
72409;BME280;60402;48.082;11.628;2023-02-28T00:42:27;95709.00;;;-4.20;93.45
72409;BME280;60402;48.082;11.628;2023-02-28T00:44:52;95738.78;;;-4.14;94.58
72409;BME280;60402;48.082;11.628;2023-02-28T00:47:17;95743.59;;;-4.11;94.71
72409;BME280;60402;48.082;11.628;2023-02-28T00:49:43;95718.66;;;-4.26;94.99
72409;BME280;60402;48.082;11.628;2023-02-28T00:52:08;95716.34;;;-4.24;94.62
72409;BME280;60402;48.082;11.628;2023-02-28T00:54:34;95718.66;;;-4.26;95.07
72409;BME280;60402;48.082;11.628;2023-02-28T00:56:59;95734.75;;;-4.16;95.29
72409;BME280;60402;48.082;11.628;2023-02-28T00:59:25;95729.13;;;-4.32;95.33
72409;BME280;60402;48.082;11.628;2023-02-28T01:01:50;95728.53;;;-4.25;95.55
72409;BME280;60402;48.082;11.628;2023-02-28T01:04:16;95732.34;;;-4.18;95.43
72409;BME280;60402;48.082;11.628;2023-02-28T01:06:41;95739.78;;;-4.30;95.30
72409;BME280;60402;48.082;11.628;2023-02-28T01:09:07;95733.94;;;-4.17;95.49
72409;BME280;60402;48.082;11.628;2023-02-28T01:11:33;95728.53;;;-4.25;95.59
72409;BME280;60402;48.082;11.628;2023-02-28T01:13:59;95731.84;;;-4.44;96.45
72409;BME280;60402;48.082;11.628;2023-02-28T01:16:25;95693.53;;;-4.58;95.80
72409;BME280;60402;48.082;11.628;2023-02-28T01:18:50;95722.22;;;-4.26;96.13
72409;BME280;60402;48.082;11.628;2023-02-28T01:21:17;95723.81;;;-4.25;95.53
72409;BME280;60402;48.082;11.628;2023-02-28T01:23:43;95726.13;;;-4.27;95.71
72409;BME280;60402;48.082;11.628;2023-02-28T01:26:12;95718.97;;;-4.40;96.65
72409;BME280;60402;48.082;11.628;2023-02-28T01:28:37;95718.53;;;-4.42;97.01
72409;BME280;60402;48.082;11.628;2023-02-28T01:31:03;95678.47;;;-4.73;97.27
72409;BME280;60402;48.082;11.628;2023-02-28T01:33:28;95720.59;;;-4.51;97.44
72409;BME280;60402;48.082;11.628;2023-02-28T01:35:58;95714.84;;;-4.46;97.13
72409;BME280;60402;48.082;11.628;2023-02-28T01:38:23;95715.66;;;-4.46;96.80
72409;BME280;60402;48.082;11.628;2023-02-28T01:40:49;95696.41;;;-4.67;97.50
72409;BME280;60402;48.082;11.628;2023-02-28T01:46:08;95702.63;;;-4.70;98.51
72409;BME280;60402;48.082;11.628;2023-02-28T01:48:37;95680.88;;;-4.71;97.35
72409;BME280;60402;48.082;11.628;2023-02-28T01:51:13;95680.78;;;-4.63;97.47
72409;BME280;60402;48.082;11.628;2023-02-28T01:53:47;95706.22;;;-4.45;97.79
72409;BME280;60402;48.082;11.628;2023-02-28T01:56:17;95716.53;;;-4.54;97.61
72409;BME280;60402;48.082;11.628;2023-02-28T01:58:47;95687.31;;;-4.79;98.21
72409;BME280;60402;48.082;11.628;2023-02-28T02:01:13;95690.34;;;-4.60;97.94
72409;BME280;60402;48.082;11.628;2023-02-28T02:03:49;95704.13;;;-4.48;97.89
72409;BME280;60402;48.082;11.628;2023-02-28T02:06:42;95664.56;;;-4.89;98.65
72409;BME280;60402;48.082;11.628;2023-02-28T02:09:06;95676.88;;;-4.62;98.13
72409;BME280;60402;48.082;11.628;2023-02-28T02:11:32;95691.81;;;-4.63;98.54
72409;BME280;60402;48.082;11.628;2023-02-28T02:17:06;95685.84;;;-4.52;98.48
72409;BME280;60402;48.082;11.628;2023-02-28T02:36:30;95696.94;;;-4.85;100.00
72409;BME280;60402;48.082;11.628;2023-02-28T02:41:47;95652.97;;;-5.15;100.00
72409;BME280;60402;48.082;11.628;2023-02-28T02:44:35;95639.34;;;-5.11;100.00
72409;BME280;60402;48.082;11.628;2023-02-28T02:47:08;95668.44;;;-4.90;100.00
72409;BME280;60402;48.082;11.628;2023-02-28T02:49:36;95657.88;;;-4.88;100.00
72409;BME280;60402;48.082;11.628;2023-02-28T02:52:06;95672.91;;;-4.85;100.00
72409;BME280;60402;48.082;11.628;2023-02-28T02:54:35;95665.34;;;-4.88;100.00
72409;BME280;60402;48.082;11.628;2023-02-28T02:57:06;95685.44;;;-4.88;100.00
72409;BME280;60402;48.082;11.628;2023-02-28T02:59:35;95659.44;;;-5.11;100.00
72409;BME280;60402;48.082;11.628;2023-02-28T03:02:04;95684.72;;;-4.97;100.00
72409;BME280;60402;48.082;11.628;2023-02-28T03:04:36;95649.84;;;-5.26;100.00
72409;BME280;60402;48.082;11.628;2023-02-28T03:07:03;95673.00;;;-5.06;100.00
72409;BME280;60402;48.082;11.628;2023-02-28T03:09:33;95676.59;;;-4.93;100.00
72409;BME280;60402;48.082;11.628;2023-02-28T03:11:58;95678.28;;;-5.01;100.00
72409;BME280;60402;48.082;11.628;2023-02-28T03:17:28;95684.38;;;-4.95;100.00
72409;BME280;60402;48.082;11.628;2023-02-28T03:20:04;95684.25;;;-4.99;100.00
72409;BME280;60402;48.082;11.628;2023-02-28T03:22:45;95677.31;;;-4.84;100.00
72409;BME280;60402;48.082;11.628;2023-02-28T03:28:07;95678.50;;;-5.06;100.00
72409;BME280;60402;48.082;11.628;2023-02-28T03:30:51;95678.56;;;-4.94;100.00
72409;BME280;60402;48.082;11.628;2023-02-28T03:36:17;95677.94;;;-4.99;100.00
72409;BME280;60402;48.082;11.628;2023-02-28T03:38:51;95667.13;;;-5.04;100.00
72409;BME280;60402;48.082;11.628;2023-02-28T03:41:25;95652.63;;;-5.14;100.00
72409;BME280;60402;48.082;11.628;2023-02-28T03:43:58;95675.81;;;-5.15;100.00
72409;BME280;60402;48.082;11.628;2023-02-28T03:46:28;95685.09;;;-4.86;100.00
72409;BME280;60402;48.082;11.628;2023-02-28T03:49:07;95674.34;;;-5.12;100.00
72409;BME280;60402;48.082;11.628;2023-02-28T03:51:37;95664.34;;;-5.17;100.00
72409;BME280;60402;48.082;11.628;2023-02-28T03:54:09;95671.03;;;-5.05;100.00
72409;BME280;60402;48.082;11.628;2023-02-28T03:56:41;95684.38;;;-4.95;100.00
72409;BME280;60402;48.082;11.628;2023-02-28T03:59:28;95689.69;;;-4.90;100.00
72409;BME280;60402;48.082;11.628;2023-02-28T04:01:57;95658.88;;;-5.04;100.00
72409;BME280;60402;48.082;11.628;2023-02-28T04:04:23;95673.44;;;-5.04;100.00
72409;BME280;60402;48.082;11.628;2023-02-28T04:06:51;95673.41;;;-5.16;100.00
72409;BME280;60402;48.082;11.628;2023-02-28T04:09:16;95706.34;;;-4.86;100.00
72409;BME280;60402;48.082;11.628;2023-02-28T04:11:44;95705.69;;;-4.83;100.00
72409;BME280;60402;48.082;11.628;2023-02-28T04:14:11;95709.69;;;-4.81;100.00
72409;BME280;60402;48.082;11.628;2023-02-28T04:16:39;95713.00;;;-4.88;100.00
72409;BME280;60402;48.082;11.628;2023-02-28T04:19:06;95711.72;;;-4.90;100.00
72409;BME280;60402;48.082;11.628;2023-02-28T04:23:58;95722.53;;;-4.85;100.00
72409;BME280;60402;48.082;11.628;2023-02-28T04:26:28;95704.66;;;-5.12;100.00
72409;BME280;60402;48.082;11.628;2023-02-28T04:28:55;95692.50;;;-5.11;100.00
72409;BME280;60402;48.082;11.628;2023-02-28T04:31:20;95706.41;;;-5.07;100.00
72409;BME280;60402;48.082;11.628;2023-02-28T04:33:45;95648.41;;;-5.44;100.00
72409;BME280;60402;48.082;11.628;2023-02-28T04:36:10;95722.84;;;-4.99;100.00
72409;BME280;60402;48.082;11.628;2023-02-28T04:38:37;95722.44;;;-4.89;100.00
72409;BME280;60402;48.082;11.628;2023-02-28T04:41:03;95710.78;;;-4.94;100.00
72409;BME280;60402;48.082;11.628;2023-02-28T04:43:29;95696.94;;;-5.19;100.00
72409;BME280;60402;48.082;11.628;2023-02-28T04:45:56;95717.53;;;-5.04;100.00
72409;BME280;60402;48.082;11.628;2023-02-28T04:48:25;95719.28;;;-4.99;100.00
72409;BME280;60402;48.082;11.628;2023-02-28T04:50:51;95720.19;;;-5.07;100.00
72409;BME280;60402;48.082;11.628;2023-02-28T04:53:17;95674.44;;;-5.21;100.00
72409;BME280;60402;48.082;11.628;2023-02-28T04:55:43;95722.88;;;-4.86;100.00
72409;BME280;60402;48.082;11.628;2023-02-28T04:58:08;95703.03;;;-5.13;100.00
72409;BME280;60402;48.082;11.628;2023-02-28T05:00:34;95702.50;;;-5.27;100.00
72409;BME280;60402;48.082;11.628;2023-02-28T05:02:59;95698.00;;;-5.11;100.00
72409;BME280;60402;48.082;11.628;2023-02-28T05:05:24;95727.81;;;-4.92;100.00
72409;BME280;60402;48.082;11.628;2023-02-28T05:07:50;95694.66;;;-5.17;100.00
72409;BME280;60402;48.082;11.628;2023-02-28T05:10:15;95708.34;;;-5.08;100.00
72409;BME280;60402;48.082;11.628;2023-02-28T05:12:40;95748.78;;;-5.00;100.00
72409;BME280;60402;48.082;11.628;2023-02-28T05:15:06;95722.25;;;-5.04;100.00
72409;BME280;60402;48.082;11.628;2023-02-28T05:17:31;95734.63;;;-4.77;100.00
72409;BME280;60402;48.082;11.628;2023-02-28T05:19:57;95736.63;;;-4.66;100.00
72409;BME280;60402;48.082;11.628;2023-02-28T05:22:22;95733.88;;;-4.66;100.00
72409;BME280;60402;48.082;11.628;2023-02-28T05:24:47;95722.31;;;-4.80;100.00
72409;BME280;60402;48.082;11.628;2023-02-28T05:27:13;95747.00;;;-4.50;100.00
72409;BME280;60402;48.082;11.628;2023-02-28T05:29:38;95731.22;;;-4.62;100.00
72409;BME280;60402;48.082;11.628;2023-02-28T05:32:08;95722.59;;;-4.73;100.00
72409;BME280;60402;48.082;11.628;2023-02-28T05:34:33;95754.78;;;-4.65;100.00
72409;BME280;60402;48.082;11.628;2023-02-28T05:36:58;95730.47;;;-4.50;100.00
72409;BME280;60402;48.082;11.628;2023-02-28T05:39:24;95750.69;;;-4.46;100.00
72409;BME280;60402;48.082;11.628;2023-02-28T05:41:49;95727.94;;;-4.43;100.00
72409;BME280;60402;48.082;11.628;2023-02-28T05:44:15;95746.38;;;-4.23;100.00
72409;BME280;60402;48.082;11.628;2023-02-28T05:46:40;95752.31;;;-4.33;100.00
72409;BME280;60402;48.082;11.628;2023-02-28T05:49:05;95746.00;;;-4.33;100.00
72409;BME280;60402;48.082;11.628;2023-02-28T05:51:31;95745.09;;;-4.25;100.00
72409;BME280;60402;48.082;11.628;2023-02-28T05:53:59;95713.69;;;-4.33;100.00
72409;BME280;60402;48.082;11.628;2023-02-28T05:56:26;95709.06;;;-4.53;100.00
72409;BME280;60402;48.082;11.628;2023-02-28T05:58:51;95746.56;;;-4.40;100.00
72409;BME280;60402;48.082;11.628;2023-02-28T06:01:37;95754.66;;;-4.11;100.00
72409;BME280;60402;48.082;11.628;2023-02-28T06:04:04;95759.47;;;-3.95;100.00
72409;BME280;60402;48.082;11.628;2023-02-28T06:06:30;95750.97;;;-4.15;100.00
72409;BME280;60402;48.082;11.628;2023-02-28T06:08:56;95762.34;;;-4.16;100.00
72409;BME280;60402;48.082;11.628;2023-02-28T06:11:22;95751.19;;;-4.20;100.00
72409;BME280;60402;48.082;11.628;2023-02-28T06:13:56;95761.56;;;-4.04;100.00
72409;BME280;60402;48.082;11.628;2023-02-28T06:16:22;95749.59;;;-4.21;100.00
72409;BME280;60402;48.082;11.628;2023-02-28T06:18:48;95765.81;;;-4.07;100.00
72409;BME280;60402;48.082;11.628;2023-02-28T06:21:13;95781.00;;;-4.01;100.00
72409;BME280;60402;48.082;11.628;2023-02-28T06:23:39;95762.94;;;-3.98;100.00
72409;BME280;60402;48.082;11.628;2023-02-28T06:26:04;95777.88;;;-4.12;100.00
72409;BME280;60402;48.082;11.628;2023-02-28T06:28:30;95762.78;;;-4.14;100.00
72409;BME280;60402;48.082;11.628;2023-02-28T06:30:55;95769.28;;;-3.98;100.00
72409;BME280;60402;48.082;11.628;2023-02-28T06:33:21;95758.13;;;-3.89;100.00
72409;BME280;60402;48.082;11.628;2023-02-28T06:35:49;95762.94;;;-4.11;100.00
72409;BME280;60402;48.082;11.628;2023-02-28T06:38:15;95774.22;;;-3.79;100.00
72409;BME280;60402;48.082;11.628;2023-02-28T06:40:40;95782.84;;;-3.93;100.00
72409;BME280;60402;48.082;11.628;2023-02-28T06:43:05;95792.88;;;-3.76;100.00
72409;BME280;60402;48.082;11.628;2023-02-28T06:45:30;95798.72;;;-3.53;100.00
72409;BME280;60402;48.082;11.628;2023-02-28T06:47:56;95787.81;;;-3.62;100.00
72409;BME280;60402;48.082;11.628;2023-02-28T06:50:21;95756.16;;;-3.89;100.00
72409;BME280;60402;48.082;11.628;2023-02-28T06:52:47;95779.19;;;-3.84;100.00
72409;BME280;60402;48.082;11.628;2023-02-28T06:55:12;95780.66;;;-3.75;100.00
72409;BME280;60402;48.082;11.628;2023-02-28T06:57:38;95793.44;;;-3.58;100.00
72409;BME280;60402;48.082;11.628;2023-02-28T07:00:07;95802.63;;;-3.54;100.00
72409;BME280;60402;48.082;11.628;2023-02-28T07:02:35;95809.31;;;-3.67;100.00
72409;BME280;60402;48.082;11.628;2023-02-28T07:05:01;95794.13;;;-3.73;100.00
72409;BME280;60402;48.082;11.628;2023-02-28T07:07:26;95799.88;;;-3.78;100.00
72409;BME280;60402;48.082;11.628;2023-02-28T07:09:51;95789.41;;;-3.61;100.00
72409;BME280;60402;48.082;11.628;2023-02-28T07:12:17;95823.94;;;-3.54;100.00
72409;BME280;60402;48.082;11.628;2023-02-28T07:14:42;95814.50;;;-3.78;100.00
72409;BME280;60402;48.082;11.628;2023-02-28T07:17:09;95825.22;;;-3.52;100.00
72409;BME280;60402;48.082;11.628;2023-02-28T07:19:35;95826.22;;;-3.44;99.57
72409;BME280;60402;48.082;11.628;2023-02-28T07:22:01;95815.41;;;-3.74;100.00
72409;BME280;60402;48.082;11.628;2023-02-28T07:24:28;95801.47;;;-3.53;99.38
72409;BME280;60402;48.082;11.628;2023-02-28T07:26:54;95828.31;;;-3.41;99.58
72409;BME280;60402;48.082;11.628;2023-02-28T07:29:20;95807.69;;;-3.68;100.00
72409;BME280;60402;48.082;11.628;2023-02-28T07:31:46;95804.34;;;-3.49;99.45
72409;BME280;60402;48.082;11.628;2023-02-28T07:34:12;95834.84;;;-3.58;100.00
72409;BME280;60402;48.082;11.628;2023-02-28T07:36:37;95830.28;;;-3.42;99.74
72409;BME280;60402;48.082;11.628;2023-02-28T07:39:03;95793.78;;;-3.84;99.92
72409;BME280;60402;48.082;11.628;2023-02-28T07:41:29;95801.25;;;-3.72;100.00
72409;BME280;60402;48.082;11.628;2023-02-28T07:43:58;95811.75;;;-3.66;99.96
72409;BME280;60402;48.082;11.628;2023-02-28T07:46:24;95808.16;;;-3.54;100.00
72409;BME280;60402;48.082;11.628;2023-02-28T07:48:50;95815.41;;;-3.37;98.80
72409;BME280;60402;48.082;11.628;2023-02-28T07:51:16;95798.84;;;-3.49;99.36
72409;BME280;60402;48.082;11.628;2023-02-28T07:53:41;95810.00;;;-3.33;99.10
72409;BME280;60402;48.082;11.628;2023-02-28T07:56:07;95798.38;;;-3.39;98.84
72409;BME280;60402;48.082;11.628;2023-02-28T07:58:32;95798.47;;;-3.36;98.01
72409;BME280;60402;48.082;11.628;2023-02-28T08:01:07;95804.59;;;-3.42;98.44
72409;BME280;60402;48.082;11.628;2023-02-28T08:03:32;95830.81;;;-3.48;99.02
72409;BME280;60402;48.082;11.628;2023-02-28T08:05:58;95830.84;;;-3.36;98.27
72409;BME280;60402;48.082;11.628;2023-02-28T08:08:23;95820.47;;;-3.27;98.93
72409;BME280;60402;48.082;11.628;2023-02-28T08:10:49;95808.41;;;-3.47;98.82
72409;BME280;60402;48.082;11.628;2023-02-28T08:13:14;95838.44;;;-3.33;98.36
72409;BME280;60402;48.082;11.628;2023-02-28T08:15:41;95835.88;;;-3.14;98.16
72409;BME280;60402;48.082;11.628;2023-02-28T08:18:07;95834.19;;;-3.43;99.24
72409;BME280;60402;48.082;11.628;2023-02-28T08:20:32;95822.91;;;-3.50;98.76
72409;BME280;60402;48.082;11.628;2023-02-28T08:22:57;95821.75;;;-3.37;98.49
72409;BME280;60402;48.082;11.628;2023-02-28T08:25:23;95843.94;;;-3.21;98.24
72409;BME280;60402;48.082;11.628;2023-02-28T08:27:51;95846.22;;;-2.86;97.15
72409;BME280;60402;48.082;11.628;2023-02-28T08:30:16;95825.63;;;-3.13;96.61
72409;BME280;60402;48.082;11.628;2023-02-28T08:32:42;95820.09;;;-3.01;96.46
72409;BME280;60402;48.082;11.628;2023-02-28T08:35:08;95820.78;;;-3.04;95.80
72409;BME280;60402;48.082;11.628;2023-02-28T08:37:34;95823.56;;;-3.16;96.09
72409;BME280;60402;48.082;11.628;2023-02-28T08:39:59;95827.34;;;-3.09;97.09
72409;BME280;60402;48.082;11.628;2023-02-28T08:42:25;95820.78;;;-3.16;96.66
72409;BME280;60402;48.082;11.628;2023-02-28T08:44:50;95857.75;;;-3.21;97.40
72409;BME280;60402;48.082;11.628;2023-02-28T08:47:16;95850.06;;;-3.15;97.41
72409;BME280;60402;48.082;11.628;2023-02-28T08:49:41;95850.63;;;-3.34;97.93
72409;BME280;60402;48.082;11.628;2023-02-28T08:52:07;95837.66;;;-3.33;97.35
72409;BME280;60402;48.082;11.628;2023-02-28T08:54:32;95867.00;;;-3.29;97.75
72409;BME280;60402;48.082;11.628;2023-02-28T08:56:59;95865.38;;;-3.30;98.00
72409;BME280;60402;48.082;11.628;2023-02-28T08:59:24;95850.41;;;-3.41;98.04
72409;BME280;60402;48.082;11.628;2023-02-28T09:01:49;95867.22;;;-3.10;98.16
72409;BME280;60402;48.082;11.628;2023-02-28T09:04:15;95879.75;;;-3.00;97.32
72409;BME280;60402;48.082;11.628;2023-02-28T09:06:40;95876.28;;;-2.85;97.09
72409;BME280;60402;48.082;11.628;2023-02-28T09:09:06;95849.03;;;-2.70;95.68
72409;BME280;60402;48.082;11.628;2023-02-28T09:11:33;95875.25;;;-2.92;96.10
72409;BME280;60402;48.082;11.628;2023-02-28T09:14:00;95842.94;;;-3.41;97.74
72409;BME280;60402;48.082;11.628;2023-02-28T09:16:26;95861.91;;;-3.27;97.17
72409;BME280;60402;48.082;11.628;2023-02-28T09:18:51;95845.78;;;-3.25;97.89
72409;BME280;60402;48.082;11.628;2023-02-28T09:21:18;95858.44;;;-3.12;97.36
72409;BME280;60402;48.082;11.628;2023-02-28T09:23:44;95850.97;;;-3.11;97.18
72409;BME280;60402;48.082;11.628;2023-02-28T09:26:15;95870.66;;;-3.13;97.29
72409;BME280;60402;48.082;11.628;2023-02-28T09:28:41;95863.38;;;-2.93;98.37
72409;BME280;60402;48.082;11.628;2023-02-28T09:31:12;95856.09;;;-2.73;96.82
72409;BME280;60402;48.082;11.628;2023-02-28T09:33:38;95874.06;;;-2.67;95.31
72409;BME280;60402;48.082;11.628;2023-02-28T09:36:03;95890.53;;;-2.70;96.69
72409;BME280;60402;48.082;11.628;2023-02-28T09:38:29;95903.31;;;-2.66;96.32
72409;BME280;60402;48.082;11.628;2023-02-28T09:41:00;95884.94;;;-2.86;96.24
72409;BME280;60402;48.082;11.628;2023-02-28T09:43:30;95896.75;;;-2.61;96.63
72409;BME280;60402;48.082;11.628;2023-02-28T09:46:31;95904.78;;;-2.16;94.28
72409;BME280;60402;48.082;11.628;2023-02-28T09:49:00;95912.19;;;-2.20;93.90
72409;BME280;60402;48.082;11.628;2023-02-28T09:51:39;95910.81;;;-2.54;93.96
72409;BME280;60402;48.082;11.628;2023-02-28T09:54:06;95901.03;;;-2.76;95.77
72409;BME280;60402;48.082;11.628;2023-02-28T09:56:39;95910.88;;;-2.38;95.08
72409;BME280;60402;48.082;11.628;2023-02-28T10:01:47;95914.59;;;-1.90;92.86
72409;BME280;60402;48.082;11.628;2023-02-28T10:07:13;95916.16;;;-2.05;93.25
72409;BME280;60402;48.082;11.628;2023-02-28T10:09:45;95890.94;;;-2.16;93.22
72409;BME280;60402;48.082;11.628;2023-02-28T10:12:12;95900.19;;;-2.24;94.01
72409;BME280;60402;48.082;11.628;2023-02-28T10:14:44;95905.28;;;-2.26;93.87
72409;BME280;60402;48.082;11.628;2023-02-28T10:17:22;95909.41;;;-2.20;93.37
72409;BME280;60402;48.082;11.628;2023-02-28T10:22:17;95926.31;;;-1.81;91.80
72409;BME280;60402;48.082;11.628;2023-02-28T10:24:47;95919.28;;;-1.78;92.75
72409;BME280;60402;48.082;11.628;2023-02-28T10:27:24;95885.19;;;-1.95;92.40
72409;BME280;60402;48.082;11.628;2023-02-28T10:29:55;95907.44;;;-1.91;92.22
72409;BME280;60402;48.082;11.628;2023-02-28T10:32:30;95891.31;;;-1.73;91.12
72409;BME280;60402;48.082;11.628;2023-02-28T10:35:18;95931.75;;;-1.41;90.77
72409;BME280;60402;48.082;11.628;2023-02-28T10:37:47;95924.31;;;-1.52;91.55
72409;BME280;60402;48.082;11.628;2023-02-28T10:43:05;95919.25;;;-1.50;90.29
72409;BME280;60402;48.082;11.628;2023-02-28T10:45:32;95931.41;;;-1.39;88.86
72409;BME280;60402;48.082;11.628;2023-02-28T10:50:51;95913.09;;;-1.88;90.78
72409;BME280;60402;48.082;11.628;2023-02-28T10:56:04;95947.56;;;-1.41;89.73
72409;BME280;60402;48.082;11.628;2023-02-28T11:01:42;95946.06;;;-1.23;89.58
72409;BME280;60402;48.082;11.628;2023-02-28T11:04:17;95944.56;;;-1.05;88.00
72409;BME280;60402;48.082;11.628;2023-02-28T11:06:44;95946.34;;;-1.12;88.01
72409;BME280;60402;48.082;11.628;2023-02-28T11:09:26;95928.81;;;-1.32;88.14
72409;BME280;60402;48.082;11.628;2023-02-28T11:11:54;95925.75;;;-0.95;87.21
72409;BME280;60402;48.082;11.628;2023-02-28T11:16:45;95942.69;;;-0.85;87.75
72409;BME280;60402;48.082;11.628;2023-02-28T11:19:19;95909.22;;;-1.23;87.01
72409;BME280;60402;48.082;11.628;2023-02-28T11:21:59;95928.59;;;-0.76;86.70
72409;BME280;60402;48.082;11.628;2023-02-28T11:24:29;95933.56;;;-1.01;86.58
72409;BME280;60402;48.082;11.628;2023-02-28T11:26:56;95915.31;;;-0.67;86.30
72409;BME280;60402;48.082;11.628;2023-02-28T11:29:27;95942.03;;;-0.27;84.61
72409;BME280;60402;48.082;11.628;2023-02-28T11:34:35;95900.47;;;-0.59;84.18
72409;BME280;60402;48.082;11.628;2023-02-28T11:37:01;95932.38;;;-0.14;84.35
72409;BME280;60402;48.082;11.628;2023-02-28T11:39:30;95927.97;;;0.05;83.73
72409;BME280;60402;48.082;11.628;2023-02-28T11:43:08;95896.88;;;-0.05;82.80
72409;BME280;60402;48.082;11.628;2023-02-28T11:45:19;95926.66;;;0.18;82.44
72409;BME280;60402;48.082;11.628;2023-02-28T11:53:10;95895.22;;;0.14;84.16
72409;BME280;60402;48.082;11.628;2023-02-28T11:55:43;95915.84;;;0.32;82.36
72409;BME280;60402;48.082;11.628;2023-02-28T12:06:22;95884.13;;;-0.06;83.45
72409;BME280;60402;48.082;11.628;2023-02-28T12:09:16;95884.53;;;0.35;83.13
72409;BME280;60402;48.082;11.628;2023-02-28T12:17:41;95908.91;;;0.03;83.05
72409;BME280;60402;48.082;11.628;2023-02-28T12:28:44;95892.91;;;0.81;79.90
72409;BME280;60402;48.082;11.628;2023-02-28T12:31:27;95864.13;;;0.28;82.21
72409;BME280;60402;48.082;11.628;2023-02-28T12:34:20;95876.13;;;0.32;83.07
72409;BME280;60402;48.082;11.628;2023-02-28T12:36:47;95872.88;;;0.07;82.64
72409;BME280;60402;48.082;11.628;2023-02-28T12:39:26;95885.38;;;0.16;83.64
72409;BME280;60402;48.082;11.628;2023-02-28T12:42:00;95883.75;;;0.15;83.04
72409;BME280;60402;48.082;11.628;2023-02-28T12:44:31;95882.06;;;0.30;83.69
72409;BME280;60402;48.082;11.628;2023-02-28T12:47:00;95862.63;;;0.53;83.05
72409;BME280;60402;48.082;11.628;2023-02-28T12:49:31;95855.00;;;0.50;82.28
72409;BME280;60402;48.082;11.628;2023-02-28T12:52:00;95876.22;;;0.81;82.29
72409;BME280;60402;48.082;11.628;2023-02-28T12:54:33;95860.25;;;0.78;81.79
72409;BME280;60402;48.082;11.628;2023-02-28T13:00:08;95845.63;;;1.08;82.19
72409;BME280;60402;48.082;11.628;2023-02-28T13:03:27;95874.41;;;1.45;79.68
72409;BME280;60402;48.082;11.628;2023-02-28T13:11:32;95866.91;;;0.96;81.40
72409;BME280;60402;48.082;11.628;2023-02-28T13:14:06;95854.28;;;1.02;79.86
72409;BME280;60402;48.082;11.628;2023-02-28T13:16:56;95871.75;;;0.99;81.22
72409;BME280;60402;48.082;11.628;2023-02-28T13:19:25;95847.69;;;0.88;81.41
72409;BME280;60402;48.082;11.628;2023-02-28T13:21:51;95873.50;;;1.11;80.59
72409;BME280;60402;48.082;11.628;2023-02-28T13:24:41;95872.88;;;0.72;82.22
72409;BME280;60402;48.082;11.628;2023-02-28T13:29:43;95851.25;;;1.11;81.32
72409;BME280;60402;48.082;11.628;2023-02-28T13:34:40;95852.13;;;0.92;80.05
72409;BME280;60402;48.082;11.628;2023-02-28T13:56:03;95881.84;;;1.64;79.02
72409;BME280;60402;48.082;11.628;2023-02-28T13:58:36;95874.59;;;1.56;79.80
72409;BME280;60402;48.082;11.628;2023-02-28T14:06:53;95868.16;;;1.25;80.33
72409;BME280;60402;48.082;11.628;2023-02-28T14:09:31;95860.63;;;0.99;81.11
72409;BME280;60402;48.082;11.628;2023-02-28T14:15:39;95868.22;;;1.29;81.55
72409;BME280;60402;48.082;11.628;2023-02-28T14:20:47;95864.78;;;1.66;79.47
72409;BME280;60402;48.082;11.628;2023-02-28T14:29:19;95865.22;;;1.41;80.38
72409;BME280;60402;48.082;11.628;2023-02-28T14:32:05;95870.56;;;1.27;80.53
72409;BME280;60402;48.082;11.628;2023-02-28T14:34:43;95867.56;;;1.13;81.66
72409;BME280;60402;48.082;11.628;2023-02-28T14:37:15;95848.44;;;0.85;81.83
72409;BME280;60402;48.082;11.628;2023-02-28T14:39:44;95868.03;;;0.92;81.78
72409;BME280;60402;48.082;11.628;2023-02-28T14:42:34;95854.25;;;0.99;81.94
72409;BME280;60402;48.082;11.628;2023-02-28T14:45:01;95862.69;;;1.06;82.04
72409;BME280;60402;48.082;11.628;2023-02-28T14:47:34;95839.78;;;1.16;82.02
72409;BME280;60402;48.082;11.628;2023-02-28T14:50:01;95869.88;;;1.34;81.34
72409;BME280;60402;48.082;11.628;2023-02-28T14:52:30;95868.03;;;1.71;79.66
72409;BME280;60402;48.082;11.628;2023-02-28T14:55:04;95850.06;;;1.12;80.51
72409;BME280;60402;48.082;11.628;2023-02-28T14:57:40;95860.78;;;1.10;81.01
72409;BME280;60402;48.082;11.628;2023-02-28T15:02:37;95866.03;;;1.72;80.69
72409;BME280;60402;48.082;11.628;2023-02-28T15:07:37;95849.47;;;1.52;79.23
72409;BME280;60402;48.082;11.628;2023-02-28T15:12:32;95863.59;;;1.67;79.44
72409;BME280;60402;48.082;11.628;2023-02-28T15:14:58;95854.81;;;1.65;80.43
72409;BME280;60402;48.082;11.628;2023-02-28T15:17:24;95857.16;;;1.63;80.43
72409;BME280;60402;48.082;11.628;2023-02-28T15:19:51;95860.66;;;1.56;79.15
72409;BME280;60402;48.082;11.628;2023-02-28T15:22:23;95858.72;;;1.60;79.32
72409;BME280;60402;48.082;11.628;2023-02-28T15:24:51;95840.78;;;1.31;80.32